sensor_id;sensor_type;location;lat;lon;timestamp;pressure;altitude;pressure_sealevel;temperature;humidity
76653;BME280;65563;45.970;12.680;2023-04-01T00:00:54;100117.41;;;9.98;81.31
76653;BME280;65563;45.970;12.680;2023-04-01T00:01:55;100120.44;;;9.95;81.23
76653;BME280;65563;45.970;12.680;2023-04-01T00:02:55;100118.00;;;10.00;81.31
76653;BME280;65563;45.970;12.680;2023-04-01T00:03:55;100115.34;;;10.00;80.79
76653;BME280;65563;45.970;12.680;2023-04-01T00:04:55;100119.44;;;9.96;80.85
76653;BME280;65563;45.970;12.680;2023-04-01T00:05:56;100119.44;;;9.96;81.22
76653;BME280;65563;45.970;12.680;2023-04-01T00:06:57;100117.41;;;10.04;81.10
76653;BME280;65563;45.970;12.680;2023-04-01T00:07:57;100124.34;;;9.99;81.12
76653;BME280;65563;45.970;12.680;2023-04-01T00:08:57;100119.63;;;9.94;81.74
76653;BME280;65563;45.970;12.680;2023-04-01T00:09:57;100121.09;;;9.97;81.89
76653;BME280;65563;45.970;12.680;2023-04-01T00:10:58;100125.16;;;10.06;81.37
76653;BME280;65563;45.970;12.680;2023-04-01T00:11:58;100128.06;;;10.11;80.94
76653;BME280;65563;45.970;12.680;2023-04-01T00:12:58;100124.56;;;10.11;80.28
76653;BME280;65563;45.970;12.680;2023-04-01T00:13:58;100125.97;;;10.07;80.58
76653;BME280;65563;45.970;12.680;2023-04-01T00:14:58;100122.72;;;10.04;80.75
76653;BME280;65563;45.970;12.680;2023-04-01T00:15:59;100127.22;;;10.04;80.55
76653;BME280;65563;45.970;12.680;2023-04-01T00:16:59;100123.53;;;10.05;80.59
76653;BME280;65563;45.970;12.680;2023-04-01T00:17:59;100124.97;;;10.01;80.51
76653;BME280;65563;45.970;12.680;2023-04-01T00:18:59;100122.91;;;10.03;80.63
76653;BME280;65563;45.970;12.680;2023-04-01T00:20:00;100123.16;;;10.08;80.69
76653;BME280;65563;45.970;12.680;2023-04-01T00:21:00;100122.34;;;10.08;80.19
76653;BME280;65563;45.970;12.680;2023-04-01T00:22:00;100127.63;;;10.01;80.44
76653;BME280;65563;45.970;12.680;2023-04-01T00:23:00;100118.63;;;9.95;81.11
76653;BME280;65563;45.970;12.680;2023-04-01T00:24:00;100122.88;;;9.96;80.73
76653;BME280;65563;45.970;12.680;2023-04-01T00:25:01;100116.59;;;9.97;80.66
76653;BME280;65563;45.970;12.680;2023-04-01T00:26:02;100119.81;;;9.93;80.86
76653;BME280;65563;45.970;12.680;2023-04-01T00:27:02;100117.16;;;9.93;80.93
76653;BME280;65563;45.970;12.680;2023-04-01T00:28:02;100115.75;;;9.90;81.38
76653;BME280;65563;45.970;12.680;2023-04-01T00:29:03;100111.06;;;9.92;80.96
76653;BME280;65563;45.970;12.680;2023-04-01T00:30:03;100108.78;;;9.89;80.90
76653;BME280;65563;45.970;12.680;2023-04-01T00:31:04;100108.38;;;9.86;81.07
76653;BME280;65563;45.970;12.680;2023-04-01T00:32:05;100105.72;;;9.86;80.97
76653;BME280;65563;45.970;12.680;2023-04-01T00:33:05;100103.47;;;9.83;81.35
76653;BME280;65563;45.970;12.680;2023-04-01T00:34:05;100106.13;;;9.83;81.11
76653;BME280;65563;45.970;12.680;2023-04-01T00:35:05;100111.00;;;9.79;81.53
76653;BME280;65563;45.970;12.680;2023-04-01T00:36:19;100104.50;;;9.82;81.15
76653;BME280;65563;45.970;12.680;2023-04-01T00:37:19;100106.94;;;9.76;81.10
76653;BME280;65563;45.970;12.680;2023-04-01T00:38:20;100104.28;;;9.76;81.40
76653;BME280;65563;45.970;12.680;2023-04-01T00:39:20;100098.56;;;9.73;81.15
76653;BME280;65563;45.970;12.680;2023-04-01T00:41:23;100101.81;;;9.75;81.44
76653;BME280;65563;45.970;12.680;2023-04-01T00:42:23;100101.63;;;9.76;81.34
76653;BME280;65563;45.970;12.680;2023-04-01T00:43:23;100105.28;;;9.75;80.91
76653;BME280;65563;45.970;12.680;2023-04-01T00:44:28;100102.41;;;9.70;81.28
76653;BME280;65563;45.970;12.680;2023-04-01T00:45:30;100110.38;;;9.70;81.31
76653;BME280;65563;45.970;12.680;2023-04-01T00:46:31;100112.22;;;9.70;81.29
76653;BME280;65563;45.970;12.680;2023-04-01T00:47:31;100113.25;;;9.69;81.44
76653;BME280;65563;45.970;12.680;2023-04-01T00:48:33;100113.25;;;9.69;81.27
76653;BME280;65563;45.970;12.680;2023-04-01T00:49:42;100115.69;;;9.70;81.45
76653;BME280;65563;45.970;12.680;2023-04-01T00:50:45;100122.00;;;9.69;81.89
76653;BME280;65563;45.970;12.680;2023-04-01T00:51:47;100123.44;;;9.65;81.71
76653;BME280;65563;45.970;12.680;2023-04-01T00:52:48;100125.03;;;9.60;81.94
76653;BME280;65563;45.970;12.680;2023-04-01T00:53:49;100123.19;;;9.60;82.25
76653;BME280;65563;45.970;12.680;2023-04-01T00:54:53;100124.00;;;9.61;81.98
76653;BME280;65563;45.970;12.680;2023-04-01T00:56:00;100117.09;;;9.66;81.44
76653;BME280;65563;45.970;12.680;2023-04-01T00:57:06;100123.84;;;9.69;81.30
76653;BME280;65563;45.970;12.680;2023-04-01T00:58:09;100124.63;;;9.63;81.83
76653;BME280;65563;45.970;12.680;2023-04-01T00:59:11;100123.34;;;9.52;82.32
76653;BME280;65563;45.970;12.680;2023-04-01T01:00:13;100123.94;;;9.47;82.44
76653;BME280;65563;45.970;12.680;2023-04-01T01:01:14;100129.44;;;9.46;82.98
76653;BME280;65563;45.970;12.680;2023-04-01T01:02:15;100125.69;;;9.27;83.56
76653;BME280;65563;45.970;12.680;2023-04-01T01:03:15;100137.09;;;9.27;83.73
76653;BME280;65563;45.970;12.680;2023-04-01T01:04:33;100140.13;;;9.24;84.30
76653;BME280;65563;45.970;12.680;2023-04-01T01:05:38;100137.47;;;9.24;84.20
76653;BME280;65563;45.970;12.680;2023-04-01T01:06:47;100129.50;;;9.18;84.58
76653;BME280;65563;45.970;12.680;2023-04-01T01:11:08;100140.59;;;9.35;83.71
76653;BME280;65563;45.970;12.680;2023-04-01T01:12:16;100137.94;;;9.35;83.61
76653;BME280;65563;45.970;12.680;2023-04-01T01:15:32;100146.06;;;9.33;83.76
76653;BME280;65563;45.970;12.680;2023-04-01T01:16:37;100144.72;;;9.44;83.50
76653;BME280;65563;45.970;12.680;2023-04-01T01:18:02;100144.69;;;9.37;83.82
76653;BME280;65563;45.970;12.680;2023-04-01T01:19:08;100141.59;;;9.27;83.67
76653;BME280;65563;45.970;12.680;2023-04-01T01:22:30;100129.75;;;9.29;84.73
76653;BME280;65563;45.970;12.680;2023-04-01T01:32:50;100123.34;;;9.11;84.63
76653;BME280;65563;45.970;12.680;2023-04-01T01:36:02;100114.06;;;9.28;84.34
76653;BME280;65563;45.970;12.680;2023-04-01T01:37:12;100114.28;;;9.33;84.22
76653;BME280;65563;45.970;12.680;2023-04-01T01:38:15;100118.16;;;9.30;84.30
76653;BME280;65563;45.970;12.680;2023-04-01T01:39:16;100122.91;;;9.42;84.05
76653;BME280;65563;45.970;12.680;2023-04-01T01:40:17;100118.31;;;9.22;83.97
76653;BME280;65563;45.970;12.680;2023-04-01T01:41:17;100124.41;;;9.16;83.82
76653;BME280;65563;45.970;12.680;2023-04-01T01:42:18;100119.63;;;9.05;84.27
76653;BME280;65563;45.970;12.680;2023-04-01T01:43:21;100120.66;;;9.04;83.78
76653;BME280;65563;45.970;12.680;2023-04-01T01:44:22;100118.81;;;9.04;83.57
76653;BME280;65563;45.970;12.680;2023-04-01T01:45:23;100123.06;;;8.99;83.60
76653;BME280;65563;45.970;12.680;2023-04-01T01:46:25;100109.97;;;8.91;84.41
76653;BME280;65563;45.970;12.680;2023-04-01T01:47:26;100121.34;;;8.84;84.72
76653;BME280;65563;45.970;12.680;2023-04-01T01:48:28;100111.19;;;8.88;84.57
76653;BME280;65563;45.970;12.680;2023-04-01T01:49:29;100110.22;;;8.96;84.17
76653;BME280;65563;45.970;12.680;2023-04-01T01:50:31;100110.75;;;8.84;84.57
76653;BME280;65563;45.970;12.680;2023-04-01T01:51:31;100112.31;;;8.79;84.68
76653;BME280;65563;45.970;12.680;2023-04-01T01:52:32;100118.28;;;8.88;84.49
76653;BME280;65563;45.970;12.680;2023-04-01T01:53:32;100107.50;;;8.89;84.78
76653;BME280;65563;45.970;12.680;2023-04-01T01:54:32;100107.31;;;8.91;84.50
76653;BME280;65563;45.970;12.680;2023-04-01T01:55:36;100102.69;;;8.99;84.34
76653;BME280;65563;45.970;12.680;2023-04-01T01:56:37;100100.09;;;9.06;83.62
76653;BME280;65563;45.970;12.680;2023-04-01T01:57:38;100100.59;;;8.95;83.80
76653;BME280;65563;45.970;12.680;2023-04-01T01:58:41;100104.72;;;8.97;83.60
76653;BME280;65563;45.970;12.680;2023-04-01T01:59:43;100104.72;;;8.97;83.40
76653;BME280;65563;45.970;12.680;2023-04-01T02:00:46;100099.03;;;9.00;83.37
76653;BME280;65563;45.970;12.680;2023-04-01T02:01:49;100105.69;;;8.90;83.83
76653;BME280;65563;45.970;12.680;2023-04-01T02:02:50;100094.44;;;8.88;83.37
76653;BME280;65563;45.970;12.680;2023-04-01T02:03:50;100097.25;;;8.79;83.77
76653;BME280;65563;45.970;12.680;2023-04-01T02:04:52;100096.25;;;8.80;83.46
76653;BME280;65563;45.970;12.680;2023-04-01T02:05:53;100098.88;;;8.80;83.62
76653;BME280;65563;45.970;12.680;2023-04-01T02:06:59;100096.25;;;8.80;83.51
76653;BME280;65563;45.970;12.680;2023-04-01T02:08:04;100096.50;;;8.86;83.63
76653;BME280;65563;45.970;12.680;2023-04-01T02:09:06;100098.22;;;8.72;83.42
76653;BME280;65563;45.970;12.680;2023-04-01T02:10:07;100098.28;;;8.78;83.34
76653;BME280;65563;45.970;12.680;2023-04-01T02:11:08;100100.53;;;8.81;83.30
76653;BME280;65563;45.970;12.680;2023-04-01T02:12:09;100098.59;;;8.69;83.14
76653;BME280;65563;45.970;12.680;2023-04-01T02:13:16;100089.84;;;8.68;83.21
76653;BME280;65563;45.970;12.680;2023-04-01T02:14:20;100095.69;;;8.57;83.74
76653;BME280;65563;45.970;12.680;2023-04-01T02:15:21;100107.88;;;8.58;83.97
76653;BME280;65563;45.970;12.680;2023-04-01T02:16:56;100106.06;;;8.58;83.47
76653;BME280;65563;45.970;12.680;2023-04-01T02:17:48;100101.56;;;8.59;83.55
76653;BME280;65563;45.970;12.680;2023-04-01T02:18:49;100107.50;;;8.61;83.69
76653;BME280;65563;45.970;12.680;2023-04-01T02:20:50;100105.03;;;8.59;83.27
76653;BME280;65563;45.970;12.680;2023-04-01T02:21:53;100110.53;;;8.58;83.08
76653;BME280;65563;45.970;12.680;2023-04-01T02:22:55;100109.50;;;8.59;83.08
76653;BME280;65563;45.970;12.680;2023-04-01T02:23:56;100105.19;;;8.51;83.42
76653;BME280;65563;45.970;12.680;2023-04-01T02:24:59;100101.47;;;8.46;83.33
76653;BME280;65563;45.970;12.680;2023-04-01T02:26:00;100109.84;;;8.49;83.49
76653;BME280;65563;45.970;12.680;2023-04-01T02:27:01;100110.69;;;8.35;83.92
76653;BME280;65563;45.970;12.680;2023-04-01T02:28:01;100118.13;;;8.40;83.55
76653;BME280;65563;45.970;12.680;2023-04-01T02:29:03;100108.53;;;8.39;83.46
76653;BME280;65563;45.970;12.680;2023-04-01T02:30:04;100107.06;;;8.36;83.14
76653;BME280;65563;45.970;12.680;2023-04-01T02:31:05;100092.16;;;8.50;82.96
76653;BME280;65563;45.970;12.680;2023-04-01T02:32:06;100100.47;;;8.47;82.55
76653;BME280;65563;45.970;12.680;2023-04-01T02:33:07;100095.72;;;8.42;82.66
76653;BME280;65563;45.970;12.680;2023-04-01T02:34:07;100099.06;;;8.29;83.05
76653;BME280;65563;45.970;12.680;2023-04-01T02:35:09;100085.56;;;8.39;83.02
76653;BME280;65563;45.970;12.680;2023-04-01T02:36:14;100095.47;;;8.37;82.38
76653;BME280;65563;45.970;12.680;2023-04-01T02:37:14;100089.38;;;8.36;82.29
76653;BME280;65563;45.970;12.680;2023-04-01T02:38:15;100083.81;;;8.31;82.64
76653;BME280;65563;45.970;12.680;2023-04-01T02:39:15;100088.53;;;8.36;82.75
76653;BME280;65563;45.970;12.680;2023-04-01T02:40:16;100076.59;;;8.40;82.25
76653;BME280;65563;45.970;12.680;2023-04-01T02:41:16;100074.69;;;8.34;82.45
76653;BME280;65563;45.970;12.680;2023-04-01T02:42:16;100078.50;;;8.31;82.39
76653;BME280;65563;45.970;12.680;2023-04-01T02:43:17;100071.59;;;8.30;82.12
76653;BME280;65563;45.970;12.680;2023-04-01T02:44:17;100073.00;;;8.26;82.26
76653;BME280;65563;45.970;12.680;2023-04-01T02:45:17;100072.28;;;8.18;82.67
76653;BME280;65563;45.970;12.680;2023-04-01T02:46:17;100070.06;;;8.21;82.77
76653;BME280;65563;45.970;12.680;2023-04-01T02:47:18;100074.00;;;8.25;82.75
76653;BME280;65563;45.970;12.680;2023-04-01T02:48:18;100073.13;;;8.18;82.83
76653;BME280;65563;45.970;12.680;2023-04-01T02:49:18;100069.69;;;8.24;82.84
76653;BME280;65563;45.970;12.680;2023-04-01T02:50:18;100072.72;;;8.21;82.86
76653;BME280;65563;45.970;12.680;2023-04-01T02:51:18;100073.00;;;8.26;82.73
76653;BME280;65563;45.970;12.680;2023-04-01T02:52:18;100074.56;;;8.21;82.73
76653;BME280;65563;45.970;12.680;2023-04-01T02:53:19;100079.84;;;8.21;82.53
76653;BME280;65563;45.970;12.680;2023-04-01T02:54:19;100069.09;;;8.22;82.45
76653;BME280;65563;45.970;12.680;2023-04-01T02:55:19;100076.97;;;8.16;82.84
76653;BME280;65563;45.970;12.680;2023-04-01T02:56:19;100080.34;;;8.09;82.91
76653;BME280;65563;45.970;12.680;2023-04-01T02:57:20;100084.47;;;8.12;82.70
76653;BME280;65563;45.970;12.680;2023-04-01T02:58:20;100081.97;;;8.10;82.48
76653;BME280;65563;45.970;12.680;2023-04-01T02:59:20;100091.13;;;8.08;82.55
76653;BME280;65563;45.970;12.680;2023-04-01T03:00:20;100088.06;;;8.04;82.79
76653;BME280;65563;45.970;12.680;2023-04-01T03:01:20;100083.13;;;8.01;83.06
76653;BME280;65563;45.970;12.680;2023-04-01T03:02:21;100095.34;;;8.02;82.89
76653;BME280;65563;45.970;12.680;2023-04-01T03:03:21;100091.00;;;7.95;83.09
76653;BME280;65563;45.970;12.680;2023-04-01T03:04:21;100091.25;;;8.00;83.18
76653;BME280;65563;45.970;12.680;2023-04-01T03:05:22;100092.09;;;8.00;83.34
76653;BME280;65563;45.970;12.680;2023-04-01T03:06:22;100090.25;;;8.01;83.18
76653;BME280;65563;45.970;12.680;2023-04-01T03:07:23;100091.63;;;7.97;83.55
76653;BME280;65563;45.970;12.680;2023-04-01T03:08:23;100092.25;;;7.99;83.38
76653;BME280;65563;45.970;12.680;2023-04-01T03:09:24;100089.81;;;7.97;83.28
76653;BME280;65563;45.970;12.680;2023-04-01T03:10:24;100090.88;;;8.03;83.18
76653;BME280;65563;45.970;12.680;2023-04-01T03:11:24;100091.16;;;7.93;83.49
76653;BME280;65563;45.970;12.680;2023-04-01T03:12:24;100089.81;;;7.97;83.66
76653;BME280;65563;45.970;12.680;2023-04-01T03:13:24;100092.00;;;7.94;83.85
76653;BME280;65563;45.970;12.680;2023-04-01T03:14:24;100092.63;;;7.96;83.47
76653;BME280;65563;45.970;12.680;2023-04-01T03:15:25;100089.44;;;8.00;83.18
76653;BME280;65563;45.970;12.680;2023-04-01T03:16:25;100089.88;;;8.04;82.81
76653;BME280;65563;45.970;12.680;2023-04-01T03:17:25;100092.53;;;8.04;82.52
76653;BME280;65563;45.970;12.680;2023-04-01T03:18:25;100093.72;;;8.01;82.63
76653;BME280;65563;45.970;12.680;2023-04-01T03:19:26;100092.47;;;7.82;83.19
76653;BME280;65563;45.970;12.680;2023-04-01T03:20:26;100090.09;;;7.66;84.07
76653;BME280;65563;45.970;12.680;2023-04-01T03:21:26;100093.34;;;7.68;84.65
76653;BME280;65563;45.970;12.680;2023-04-01T03:22:26;100090.09;;;7.66;84.71
76653;BME280;65563;45.970;12.680;2023-04-01T03:23:26;100085.78;;;7.65;84.87
76653;BME280;65563;45.970;12.680;2023-04-01T03:24:26;100081.13;;;7.67;84.69
76653;BME280;65563;45.970;12.680;2023-04-01T03:25:27;100082.16;;;7.66;84.96
76653;BME280;65563;45.970;12.680;2023-04-01T03:26:27;100083.50;;;7.77;85.21
76653;BME280;65563;45.970;12.680;2023-04-01T03:27:27;100086.56;;;7.80;85.11
76653;BME280;65563;45.970;12.680;2023-04-01T03:28:27;100084.81;;;7.87;84.49
76653;BME280;65563;45.970;12.680;2023-04-01T03:29:27;100084.81;;;7.87;84.41
76653;BME280;65563;45.970;12.680;2023-04-01T03:30:27;100086.31;;;7.97;83.62
76653;BME280;65563;45.970;12.680;2023-04-01T03:31:28;100087.63;;;8.01;83.08
76653;BME280;65563;45.970;12.680;2023-04-01T03:32:28;100082.31;;;8.01;82.49
76653;BME280;65563;45.970;12.680;2023-04-01T03:33:28;100086.53;;;7.95;82.71
76653;BME280;65563;45.970;12.680;2023-04-01T03:34:28;100084.44;;;7.91;82.71
76653;BME280;65563;45.970;12.680;2023-04-01T03:35:28;100084.44;;;7.91;82.56
76653;BME280;65563;45.970;12.680;2023-04-01T03:36:28;100080.78;;;7.92;82.63
76653;BME280;65563;45.970;12.680;2023-04-01T03:37:29;100084.63;;;7.89;82.68
76653;BME280;65563;45.970;12.680;2023-04-01T03:38:29;100088.16;;;7.96;82.43
76653;BME280;65563;45.970;12.680;2023-04-01T03:39:30;100085.44;;;7.89;82.68
76653;BME280;65563;45.970;12.680;2023-04-01T03:40:31;100083.44;;;7.92;83.25
76653;BME280;65563;45.970;12.680;2023-04-01T03:41:31;100086.56;;;7.80;83.43
76653;BME280;65563;45.970;12.680;2023-04-01T03:42:32;100085.25;;;7.70;83.81
76653;BME280;65563;45.970;12.680;2023-04-01T03:43:32;100084.50;;;7.61;84.07
76653;BME280;65563;45.970;12.680;2023-04-01T03:44:33;100079.59;;;7.58;84.22
76653;BME280;65563;45.970;12.680;2023-04-01T03:45:33;100078.91;;;7.49;84.16
76653;BME280;65563;45.970;12.680;2023-04-01T03:46:33;100083.81;;;7.52;84.06
76653;BME280;65563;45.970;12.680;2023-04-01T03:47:33;100089.44;;;7.64;83.63
76653;BME280;65563;45.970;12.680;2023-04-01T03:48:34;100084.44;;;7.69;82.92
76653;BME280;65563;45.970;12.680;2023-04-01T03:49:34;100086.34;;;7.60;83.15
76653;BME280;65563;45.970;12.680;2023-04-01T03:50:34;100086.25;;;7.54;83.07
76653;BME280;65563;45.970;12.680;2023-04-01T03:51:34;100088.41;;;7.65;82.79
76653;BME280;65563;45.970;12.680;2023-04-01T03:52:35;100086.63;;;7.65;82.34
76653;BME280;65563;45.970;12.680;2023-04-01T03:53:35;100077.84;;;7.65;82.65
76653;BME280;65563;45.970;12.680;2023-04-01T03:54:35;100083.25;;;7.57;82.90
76653;BME280;65563;45.970;12.680;2023-04-01T03:55:35;100084.38;;;7.48;83.29
76653;BME280;65563;45.970;12.680;2023-04-01T03:56:36;100093.03;;;7.41;83.76
76653;BME280;65563;45.970;12.680;2023-04-01T03:57:37;100090.03;;;7.30;84.67
76653;BME280;65563;45.970;12.680;2023-04-01T03:58:37;100086.31;;;7.24;84.32
76653;BME280;65563;45.970;12.680;2023-04-01T03:59:37;100089.56;;;7.26;83.80
76653;BME280;65563;45.970;12.680;2023-04-01T04:00:37;100091.31;;;7.19;84.01
76653;BME280;65563;45.970;12.680;2023-04-01T04:01:38;100098.97;;;7.14;84.04
76653;BME280;65563;45.970;12.680;2023-04-01T04:02:38;100096.44;;;7.21;83.68
76653;BME280;65563;45.970;12.680;2023-04-01T04:03:38;100098.31;;;7.12;83.86
76653;BME280;65563;45.970;12.680;2023-04-01T04:04:38;100101.97;;;7.11;84.14
76653;BME280;65563;45.970;12.680;2023-04-01T04:05:45;100096.03;;;7.09;84.36
76653;BME280;65563;45.970;12.680;2023-04-01T04:06:45;100094.69;;;7.13;84.44
76653;BME280;65563;45.970;12.680;2023-04-01T04:07:45;100099.16;;;7.27;84.24
76653;BME280;65563;45.970;12.680;2023-04-01T04:08:46;100088.47;;;7.35;83.46
76653;BME280;65563;45.970;12.680;2023-04-01T04:09:46;100097.41;;;7.34;83.32
76653;BME280;65563;45.970;12.680;2023-04-01T04:10:46;100094.97;;;7.18;83.70
76653;BME280;65563;45.970;12.680;2023-04-01T04:11:46;100091.16;;;7.21;83.75
76653;BME280;65563;45.970;12.680;2023-04-01T04:12:46;100096.44;;;7.21;83.67
76653;BME280;65563;45.970;12.680;2023-04-01T04:13:48;100099.13;;;7.12;84.33
76653;BME280;65563;45.970;12.680;2023-04-01T04:14:48;100095.88;;;7.10;84.27
76653;BME280;65563;45.970;12.680;2023-04-01T04:15:49;100095.69;;;7.12;84.37
76653;BME280;65563;45.970;12.680;2023-04-01T04:16:49;100090.75;;;7.09;84.50
76653;BME280;65563;45.970;12.680;2023-04-01T04:17:49;100100.59;;;7.15;84.36
76653;BME280;65563;45.970;12.680;2023-04-01T04:18:49;100099.22;;;7.19;83.82
76653;BME280;65563;45.970;12.680;2023-04-01T04:19:49;100098.88;;;7.22;83.54
76653;BME280;65563;45.970;12.680;2023-04-01T04:20:50;100097.13;;;7.29;83.14
76653;BME280;65563;45.970;12.680;2023-04-01T04:21:50;100090.88;;;7.30;82.71
76653;BME280;65563;45.970;12.680;2023-04-01T04:22:50;100101.78;;;7.27;83.07
76653;BME280;65563;45.970;12.680;2023-04-01T04:23:50;100104.69;;;7.32;82.88
76653;BME280;65563;45.970;12.680;2023-04-01T04:24:50;100103.44;;;7.28;82.73
76653;BME280;65563;45.970;12.680;2023-04-01T04:25:58;100107.25;;;7.26;83.12
76653;BME280;65563;45.970;12.680;2023-04-01T04:26:58;100107.91;;;7.28;83.14
76653;BME280;65563;45.970;12.680;2023-04-01T04:27:58;100103.25;;;7.15;83.19
76653;BME280;65563;45.970;12.680;2023-04-01T04:28:59;100113.25;;;7.05;83.20
76653;BME280;65563;45.970;12.680;2023-04-01T04:29:59;100108.63;;;7.07;83.70
76653;BME280;65563;45.970;12.680;2023-04-01T04:31:00;100104.25;;;6.99;84.04
76653;BME280;65563;45.970;12.680;2023-04-01T04:32:00;100114.53;;;7.09;83.84
76653;BME280;65563;45.970;12.680;2023-04-01T04:33:00;100116.53;;;7.07;83.72
76653;BME280;65563;45.970;12.680;2023-04-01T04:34:00;100106.53;;;7.02;83.77
76653;BME280;65563;45.970;12.680;2023-04-01T04:35:01;100110.81;;;7.18;83.74
76653;BME280;65563;45.970;12.680;2023-04-01T04:36:01;100108.16;;;7.18;83.03
76653;BME280;65563;45.970;12.680;2023-04-01T04:37:02;100111.81;;;7.17;83.10
76653;BME280;65563;45.970;12.680;2023-04-01T04:38:02;100108.25;;;7.10;83.11
76653;BME280;65563;45.970;12.680;2023-04-01T04:39:02;100105.06;;;7.00;83.18
76653;BME280;65563;45.970;12.680;2023-04-01T04:40:02;100111.16;;;7.00;83.65
76653;BME280;65563;45.970;12.680;2023-04-01T04:41:02;100105.34;;;7.05;83.77
76653;BME280;65563;45.970;12.680;2023-04-01T04:42:03;100105.63;;;6.95;84.10
76653;BME280;65563;45.970;12.680;2023-04-01T04:43:03;100103.34;;;7.07;83.96
76653;BME280;65563;45.970;12.680;2023-04-01T04:44:03;100109.25;;;7.09;83.65
76653;BME280;65563;45.970;12.680;2023-04-01T04:45:04;100112.88;;;7.08;83.64
76653;BME280;65563;45.970;12.680;2023-04-01T04:46:10;100111.97;;;7.01;83.40
76653;BME280;65563;45.970;12.680;2023-04-01T04:47:10;100113.34;;;6.97;83.57
76653;BME280;65563;45.970;12.680;2023-04-01T04:48:11;100117.00;;;6.96;83.67
76653;BME280;65563;45.970;12.680;2023-04-01T04:49:12;100125.91;;;6.94;83.97
76653;BME280;65563;45.970;12.680;2023-04-01T04:50:12;100127.63;;;6.87;84.29
76653;BME280;65563;45.970;12.680;2023-04-01T04:51:15;100129.63;;;6.85;84.03
76653;BME280;65563;45.970;12.680;2023-04-01T04:52:16;100130.44;;;6.86;84.25
76653;BME280;65563;45.970;12.680;2023-04-01T04:53:17;100131.16;;;6.80;85.06
76653;BME280;65563;45.970;12.680;2023-04-01T04:54:17;100125.97;;;6.86;85.08
76653;BME280;65563;45.970;12.680;2023-04-01T04:55:17;100131.91;;;6.88;85.48
76653;BME280;65563;45.970;12.680;2023-04-01T04:56:21;100131.81;;;6.97;85.32
76653;BME280;65563;45.970;12.680;2023-04-01T04:57:22;100132.19;;;6.93;85.17
76653;BME280;65563;45.970;12.680;2023-04-01T04:58:22;100130.81;;;6.98;85.05
76653;BME280;65563;45.970;12.680;2023-04-01T04:59:22;100139.47;;;6.91;85.06
76653;BME280;65563;45.970;12.680;2023-04-01T05:00:22;100138.63;;;6.91;84.88
76653;BME280;65563;45.970;12.680;2023-04-01T05:01:23;100143.56;;;6.94;84.73
76653;BME280;65563;45.970;12.680;2023-04-01T05:02:23;100142.13;;;6.91;84.37
76653;BME280;65563;45.970;12.680;2023-04-01T05:03:23;100151.00;;;6.90;84.76
76653;BME280;65563;45.970;12.680;2023-04-01T05:04:23;100143.09;;;6.90;84.94
76653;BME280;65563;45.970;12.680;2023-04-01T05:05:23;100150.84;;;6.92;84.91
76653;BME280;65563;45.970;12.680;2023-04-01T05:06:23;100153.94;;;6.96;85.12
76653;BME280;65563;45.970;12.680;2023-04-01T05:07:24;100145.94;;;6.89;85.11
76653;BME280;65563;45.970;12.680;2023-04-01T05:08:24;100145.94;;;6.89;85.55
76653;BME280;65563;45.970;12.680;2023-04-01T05:09:24;100150.19;;;6.90;85.48
76653;BME280;65563;45.970;12.680;2023-04-01T05:10:24;100154.66;;;6.89;85.49
76653;BME280;65563;45.970;12.680;2023-04-01T05:11:24;100153.13;;;6.95;85.51
76653;BME280;65563;45.970;12.680;2023-04-01T05:12:25;100152.13;;;6.96;85.61
76653;BME280;65563;45.970;12.680;2023-04-01T05:13:25;100147.84;;;6.95;85.44
76653;BME280;65563;45.970;12.680;2023-04-01T05:14:25;100148.38;;;6.90;85.42
76653;BME280;65563;45.970;12.680;2023-04-01T05:15:25;100143.84;;;6.99;85.42
76653;BME280;65563;45.970;12.680;2023-04-01T05:16:25;100152.94;;;6.97;84.88
76653;BME280;65563;45.970;12.680;2023-04-01T05:17:26;100152.94;;;6.97;84.88
76653;BME280;65563;45.970;12.680;2023-04-01T05:18:26;100151.56;;;7.01;85.00
76653;BME280;65563;45.970;12.680;2023-04-01T05:19:26;100147.13;;;7.01;84.74
76653;BME280;65563;45.970;12.680;2023-04-01T05:20:26;100149.94;;;7.00;84.53
76653;BME280;65563;45.970;12.680;2023-04-01T05:21:26;100156.25;;;6.99;84.94
76653;BME280;65563;45.970;12.680;2023-04-01T05:22:26;100152.41;;;7.01;85.03
76653;BME280;65563;45.970;12.680;2023-04-01T05:23:27;100157.97;;;7.06;84.74
76653;BME280;65563;45.970;12.680;2023-04-01T05:24:27;100149.59;;;7.03;84.86
76653;BME280;65563;45.970;12.680;2023-04-01T05:25:27;100159.13;;;7.04;84.38
76653;BME280;65563;45.970;12.680;2023-04-01T05:26:27;100151.94;;;7.12;82.95
76653;BME280;65563;45.970;12.680;2023-04-01T05:27:28;100156.41;;;7.12;82.13
76653;BME280;65563;45.970;12.680;2023-04-01T05:28:28;100154.78;;;7.11;82.42
76653;BME280;65563;45.970;12.680;2023-04-01T05:29:28;100151.78;;;6.99;83.16
76653;BME280;65563;45.970;12.680;2023-04-01T05:30:28;100163.16;;;7.00;83.21
76653;BME280;65563;45.970;12.680;2023-04-01T05:31:28;100156.94;;;6.92;83.62
76653;BME280;65563;45.970;12.680;2023-04-01T05:32:30;100165.03;;;6.91;82.84
76653;BME280;65563;45.970;12.680;2023-04-01T05:33:30;100166.50;;;7.08;81.94
76653;BME280;65563;45.970;12.680;2023-04-01T05:34:31;100172.81;;;7.07;81.71
76653;BME280;65563;45.970;12.680;2023-04-01T05:35:31;100177.06;;;7.08;81.24
76653;BME280;65563;45.970;12.680;2023-04-01T05:36:31;100178.63;;;7.03;81.14
76653;BME280;65563;45.970;12.680;2023-04-01T05:37:33;100180.72;;;7.07;80.90
76653;BME280;65563;45.970;12.680;2023-04-01T05:38:33;100179.00;;;7.00;81.01
76653;BME280;65563;45.970;12.680;2023-04-01T05:39:36;100177.88;;;6.94;81.15
76653;BME280;65563;45.970;12.680;2023-04-01T05:40:37;100184.63;;;6.97;81.23
76653;BME280;65563;45.970;12.680;2023-04-01T05:41:37;100183.81;;;6.96;81.44